createdAt,value
2022-12-25T00:00:25.115Z,91.39
2022-12-25T00:01:25.268Z,91.50
2022-12-25T00:02:25.837Z,91.50
2022-12-25T00:03:26.042Z,91.35
2022-12-25T00:04:26.282Z,91.19
2022-12-25T00:05:26.428Z,91.29
2022-12-25T00:06:26.776Z,91.25
2022-12-25T00:07:27.075Z,91.29
2022-12-25T00:08:27.268Z,91.29
2022-12-25T00:09:27.559Z,91.29
2022-12-25T00:10:27.868Z,91.15
2022-12-25T00:11:28.173Z,91.15
2022-12-25T00:12:28.517Z,91.05
2022-12-25T00:13:29.797Z,91.19
2022-12-25T00:14:29.062Z,91.39
2022-12-25T00:15:29.318Z,91.60
2022-12-25T00:16:29.693Z,91.50
2022-12-25T00:17:29.891Z,91.50
2022-12-25T00:18:30.199Z,91.39
2022-12-25T00:19:30.454Z,91.19
2022-12-25T00:20:30.800Z,91.39
2022-12-25T00:21:31.069Z,91.29
2022-12-25T00:22:31.412Z,91.29
2022-12-25T00:23:31.593Z,91.29
2022-12-25T00:24:31.900Z,91.29
2022-12-25T00:25:32.231Z,91.29
2022-12-25T00:26:32.566Z,91.29
2022-12-25T00:27:32.769Z,91.39
2022-12-25T00:28:33.125Z,91.39
2022-12-25T00:29:33.801Z,91.39
2022-12-25T00:30:33.711Z,91.25
2022-12-25T00:31:34.109Z,91.29
2022-12-25T00:32:34.271Z,91.29
2022-12-25T00:33:34.572Z,91.25
2022-12-25T00:34:34.858Z,91.39
2022-12-25T00:35:35.086Z,91.39
2022-12-25T00:36:41.336Z,91.50
2022-12-25T00:37:36.719Z,91.50
2022-12-25T00:38:36.005Z,91.50
2022-12-25T00:39:36.235Z,91.60
2022-12-25T00:40:36.566Z,91.50
2022-12-25T00:41:36.744Z,91.50
2022-12-25T00:42:37.108Z,91.35
2022-12-25T00:43:37.355Z,91.29
2022-12-25T00:44:37.678Z,91.29
2022-12-25T00:45:37.946Z,91.35
2022-12-25T00:46:38.272Z,91.39
2022-12-25T00:47:38.509Z,91.25
2022-12-25T00:48:39.242Z,91.15
2022-12-25T00:49:38.930Z,91.05
2022-12-25T00:50:39.278Z,90.84
2022-12-25T00:51:39.649Z,90.94
2022-12-25T00:52:39.805Z,91.09
2022-12-25T00:53:40.122Z,91.29
2022-12-25T00:54:40.428Z,91.39
2022-12-25T00:55:40.714Z,91.60
2022-12-25T00:56:41.079Z,91.70
2022-12-25T00:57:41.357Z,91.70
2022-12-25T00:58:41.685Z,91.80
2022-12-25T00:59:41.935Z,91.80
2022-12-25T01:00:42.429Z,91.91
2022-12-25T01:01:42.715Z,91.91
2022-12-25T01:02:42.991Z,91.80
2022-12-25T01:03:43.130Z,91.91
2022-12-25T01:04:43.297Z,91.91
2022-12-25T01:05:43.675Z,91.91
2022-12-25T01:06:43.823Z,91.91
2022-12-25T01:07:44.172Z,91.91
2022-12-25T01:08:44.501Z,91.80
2022-12-25T01:09:44.650Z,91.80
2022-12-25T01:10:45.831Z,91.91
2022-12-25T01:11:45.265Z,91.80
2022-12-25T01:12:45.570Z,91.80
2022-12-25T01:13:45.852Z,91.80
2022-12-25T01:14:46.168Z,91.80
2022-12-25T01:15:46.484Z,91.70
2022-12-25T01:16:46.851Z,91.80
2022-12-25T01:17:47.064Z,91.91
2022-12-25T01:18:47.363Z,92.01
2022-12-25T01:19:47.668Z,92.11
2022-12-25T01:20:48.943Z,92.11
2022-12-25T01:21:48.239Z,92.01
2022-12-25T01:22:48.538Z,92.32
2022-12-25T01:23:48.821Z,92.32
2022-12-25T01:24:49.167Z,92.32
2022-12-25T01:25:49.420Z,92.52
2022-12-25T01:26:49.814Z,92.42
2022-12-25T01:27:50.114Z,92.42
2022-12-25T01:28:50.351Z,92.42
2022-12-25T01:29:50.669Z,92.52
2022-12-25T01:30:51.102Z,92.52
2022-12-25T01:31:51.338Z,92.56
2022-12-25T01:32:51.601Z,92.56
2022-12-25T01:33:51.856Z,92.66
2022-12-25T01:34:56.034Z,92.66
2022-12-25T01:35:52.396Z,92.66
2022-12-25T01:36:52.788Z,92.62
2022-12-25T01:37:53.136Z,92.52
2022-12-25T01:38:53.339Z,92.42
2022-12-25T01:39:53.519Z,92.42
2022-12-25T01:40:53.898Z,92.21
2022-12-25T01:41:54.202Z,92.11
2022-12-25T01:42:54.525Z,92.11
2022-12-25T01:43:54.801Z,92.01
2022-12-25T01:44:55.161Z,92.01
2022-12-25T01:45:55.494Z,92.01
2022-12-25T01:46:55.686Z,92.01
2022-12-25T01:47:55.993Z,91.91
2022-12-25T01:48:56.311Z,92.01
2022-12-25T01:49:56.632Z,91.91
2022-12-25T01:50:57.368Z,92.11
2022-12-25T01:51:57.237Z,92.21
2022-12-25T01:52:57.615Z,92.15
2022-12-25T01:53:57.828Z,92.36
2022-12-25T01:54:58.154Z,92.46
2022-12-25T01:55:58.483Z,92.46
2022-12-25T01:56:58.803Z,92.46
2022-12-25T01:57:59.048Z,92.36
2022-12-25T01:58:59.384Z,92.36
2022-12-25T01:59:59.695Z,92.46
2022-12-25T02:01:00.056Z,92.36
2022-12-25T02:02:00.513Z,92.46
2022-12-25T02:03:00.700Z,92.25
2022-12-25T02:04:01.020Z,92.36
2022-12-25T02:05:01.313Z,92.36
2022-12-25T02:06:01.521Z,92.36
2022-12-25T02:07:01.838Z,92.56
2022-12-25T02:08:02.101Z,92.56
2022-12-25T02:09:02.298Z,92.66
2022-12-25T02:10:02.677Z,92.56
2022-12-25T02:11:03.068Z,92.66
2022-12-25T02:12:03.250Z,92.46
2022-12-25T02:13:03.612Z,92.46
2022-12-25T02:14:03.943Z,92.56
2022-12-25T02:15:06.073Z,92.46
2022-12-25T02:16:04.527Z,92.46
2022-12-25T02:17:04.846Z,92.36
2022-12-25T02:18:05.485Z,92.46
2022-12-25T02:19:05.350Z,92.36
2022-12-25T02:20:05.709Z,92.36
2022-12-25T02:21:05.921Z,92.36
2022-12-25T02:22:06.202Z,92.11
2022-12-25T02:23:06.488Z,92.25
2022-12-25T02:24:06.694Z,92.46
2022-12-25T02:25:07.069Z,92.46
2022-12-25T02:26:07.288Z,92.56
2022-12-25T02:27:07.625Z,92.56
2022-12-25T02:28:07.915Z,92.66
2022-12-25T02:29:08.262Z,92.77
2022-12-25T02:30:08.580Z,92.66
2022-12-25T02:31:08.823Z,92.77
2022-12-25T02:32:09.281Z,92.66
2022-12-25T02:33:09.466Z,92.66
2022-12-25T02:34:09.814Z,92.56
2022-12-25T02:35:09.987Z,92.66
2022-12-25T02:36:10.320Z,92.66
2022-12-25T02:37:10.531Z,92.56
2022-12-25T02:38:10.855Z,92.66
2022-12-25T02:39:11.117Z,92.66
2022-12-25T02:40:11.278Z,92.56
2022-12-25T02:41:11.607Z,92.46
2022-12-25T02:42:11.924Z,92.46
2022-12-25T02:43:12.178Z,92.36
2022-12-25T02:44:13.338Z,92.25
2022-12-25T02:45:12.825Z,92.15
2022-12-25T02:46:13.205Z,92.05
2022-12-25T02:47:13.492Z,92.05
2022-12-25T02:48:13.686Z,91.95
2022-12-25T02:49:14.012Z,91.80
2022-12-25T02:50:14.343Z,91.70
2022-12-25T02:51:14.531Z,91.50
2022-12-25T02:52:14.908Z,91.39
2022-12-25T02:53:15.170Z,91.29
2022-12-25T02:54:15.448Z,91.29
2022-12-25T02:55:15.701Z,91.09
2022-12-25T02:56:16.891Z,91.19
2022-12-25T02:57:16.229Z,91.19
2022-12-25T02:58:16.535Z,91.33
2022-12-25T02:59:16.827Z,91.29
2022-12-25T03:00:17.563Z,91.33
2022-12-25T03:01:17.521Z,91.19
2022-12-25T03:02:17.809Z,91.19
2022-12-25T03:03:18.085Z,91.09
2022-12-25T03:04:18.277Z,90.99
2022-12-25T03:05:18.603Z,90.99
2022-12-25T03:06:18.893Z,90.88
2022-12-25T03:07:19.276Z,90.78
2022-12-25T03:08:19.583Z,90.78
2022-12-25T03:09:19.906Z,90.78
2022-12-25T03:10:20.214Z,90.58
2022-12-25T03:11:20.540Z,90.27
2022-12-25T03:12:20.830Z,90.37
2022-12-25T03:13:21.164Z,90.17
2022-12-25T03:14:21.474Z,90.06
2022-12-25T03:15:21.842Z,90.06
2022-12-25T03:16:22.115Z,90.06
2022-12-25T03:17:22.399Z,89.97
2022-12-25T03:18:22.692Z,89.86
2022-12-25T03:19:23.073Z,89.86
2022-12-25T03:20:23.373Z,89.86
2022-12-25T03:21:23.637Z,89.76
2022-12-25T03:22:24.026Z,89.76
2022-12-25T03:23:24.259Z,89.65
2022-12-25T03:24:24.520Z,89.90
2022-12-25T03:25:24.861Z,89.90
2022-12-25T03:26:25.042Z,90.00
2022-12-25T03:27:25.429Z,90.00
2022-12-25T03:28:25.627Z,89.90
2022-12-25T03:29:31.677Z,89.80
2022-12-25T03:30:27.291Z,89.80
2022-12-25T03:31:26.639Z,89.70
2022-12-25T03:32:26.724Z,89.90
2022-12-25T03:33:44.657Z,90.11
2022-12-25T03:34:28.333Z,90.11
2022-12-25T03:35:28.564Z,90.00
2022-12-25T03:36:27.894Z,90.00
2022-12-25T03:37:28.197Z,89.90
2022-12-25T03:38:28.453Z,89.90
2022-12-25T03:39:28.775Z,90.00
2022-12-25T03:40:29.077Z,89.90
2022-12-25T03:41:29.284Z,89.90
2022-12-25T03:42:29.609Z,89.90
2022-12-25T03:43:29.949Z,89.90
2022-12-25T03:44:30.411Z,89.90
2022-12-25T03:45:30.607Z,89.90
2022-12-25T03:46:30.953Z,89.90
2022-12-25T03:47:31.170Z,89.90
2022-12-25T03:48:31.461Z,89.76
2022-12-25T03:49:31.803Z,89.59
2022-12-25T03:50:32.086Z,89.39
2022-12-25T03:51:32.434Z,89.25
2022-12-25T03:52:32.725Z,89.04
2022-12-25T03:53:33.028Z,89.18
2022-12-25T03:54:33.394Z,89.09
2022-12-25T03:55:33.586Z,89.04
2022-12-25T03:56:33.807Z,88.84
2022-12-25T03:57:34.162Z,88.84
2022-12-25T03:58:34.480Z,88.64
2022-12-25T03:59:34.946Z,88.74
2022-12-25T04:00:35.172Z,88.53
2022-12-25T04:01:35.455Z,88.53
2022-12-25T04:02:35.858Z,88.53
2022-12-25T04:03:35.987Z,88.43
2022-12-25T04:04:36.191Z,88.43
2022-12-25T04:05:36.494Z,88.23
2022-12-25T04:06:36.810Z,88.23
2022-12-25T04:07:37.087Z,88.23
2022-12-25T04:08:37.399Z,88.23
2022-12-25T04:09:37.750Z,88.23
2022-12-25T04:10:37.926Z,88.23
2022-12-25T04:11:38.113Z,88.12
2022-12-25T04:12:38.499Z,88.12
2022-12-25T04:13:38.760Z,88.12
2022-12-25T04:14:38.949Z,88.12
2022-12-25T04:15:39.291Z,88.23
2022-12-25T04:16:39.468Z,88.23
2022-12-25T04:17:39.852Z,88.23
2022-12-25T04:18:40.178Z,88.23
2022-12-25T04:19:40.479Z,88.33
2022-12-25T04:20:40.864Z,88.43
2022-12-25T04:21:41.076Z,88.43
2022-12-25T04:22:41.385Z,88.43
2022-12-25T04:23:41.732Z,88.33
2022-12-25T04:24:41.925Z,88.33
2022-12-25T04:25:42.190Z,88.53
2022-12-25T04:26:42.502Z,88.43
2022-12-25T04:27:42.828Z,88.43
2022-12-25T04:28:43.130Z,88.43
2022-12-25T04:29:43.423Z,88.33
2022-12-25T04:30:43.783Z,88.23
2022-12-25T04:31:44.183Z,88.23
2022-12-25T04:32:44.336Z,88.23
2022-12-25T04:33:44.904Z,88.12
2022-12-25T04:34:44.984Z,87.92
2022-12-25T04:35:45.323Z,87.82
2022-12-25T04:36:45.498Z,88.02
2022-12-25T04:37:45.812Z,88.02
2022-12-25T04:38:46.121Z,87.92
2022-12-25T04:39:46.462Z,87.92
2022-12-25T04:40:46.753Z,87.92
2022-12-25T04:41:47.104Z,87.88
2022-12-25T04:42:47.280Z,87.77
2022-12-25T04:43:47.601Z,87.77
2022-12-25T04:44:47.919Z,87.82
2022-12-25T04:45:48.293Z,87.82
2022-12-25T04:46:48.591Z,87.82
2022-12-25T04:47:48.776Z,87.92
2022-12-25T04:48:49.080Z,88.02
2022-12-25T04:49:49.406Z,88.02
2022-12-25T04:50:49.669Z,88.02
2022-12-25T04:51:50.108Z,88.12
2022-12-25T04:52:50.265Z,87.98
2022-12-25T04:53:50.628Z,88.02
2022-12-25T04:54:50.906Z,88.12
2022-12-25T04:55:51.300Z,88.12
2022-12-25T04:56:51.550Z,88.23
2022-12-25T04:57:51.867Z,88.33
2022-12-25T04:58:52.054Z,88.33
2022-12-25T04:59:52.359Z,88.43
2022-12-25T05:00:52.613Z,88.33
2022-12-25T05:01:53.003Z,88.23
2022-12-25T05:02:53.331Z,88.33
2022-12-25T05:03:53.551Z,88.43
2022-12-25T05:04:53.821Z,88.43
2022-12-25T05:05:54.045Z,88.33
2022-12-25T05:06:54.348Z,88.33
2022-12-25T05:07:54.671Z,88.23
2022-12-25T05:08:55.044Z,88.23
2022-12-25T05:09:55.360Z,88.53
2022-12-25T05:10:55.567Z,88.53
2022-12-25T05:11:55.883Z,88.53
2022-12-25T05:12:56.191Z,88.53
2022-12-25T05:13:56.516Z,88.43
2022-12-25T05:14:56.814Z,88.43
2022-12-25T05:15:57.207Z,88.43
2022-12-25T05:16:57.383Z,88.33
2022-12-25T05:17:57.687Z,88.33
2022-12-25T05:18:58.054Z,88.23
2022-12-25T05:19:58.381Z,88.23
2022-12-25T05:20:58.606Z,88.33
2022-12-25T05:21:58.945Z,88.23
2022-12-25T05:22:59.250Z,88.23
2022-12-25T05:23:59.562Z,88.33
2022-12-25T05:24:59.855Z,88.33
2022-12-25T05:26:00.197Z,88.33
2022-12-25T05:27:00.509Z,88.43
2022-12-25T05:28:00.818Z,88.53
2022-12-25T05:29:01.144Z,88.53
2022-12-25T05:30:01.483Z,88.43
2022-12-25T05:31:01.637Z,88.53
2022-12-25T05:32:02.006Z,88.53
2022-12-25T05:33:02.311Z,88.53
2022-12-25T05:34:02.656Z,88.64
2022-12-25T05:35:02.819Z,88.88
2022-12-25T05:36:03.175Z,89.04
2022-12-25T05:37:03.495Z,89.18
2022-12-25T05:38:03.766Z,89.15
2022-12-25T05:39:04.072Z,89.04
2022-12-25T05:40:04.425Z,88.94
2022-12-25T05:41:04.697Z,88.84
2022-12-25T05:42:05.059Z,88.74
2022-12-25T05:43:05.334Z,88.64
2022-12-25T05:44:05.675Z,88.74
2022-12-25T05:45:06.349Z,88.84
2022-12-25T05:46:06.307Z,88.94
2022-12-25T05:47:06.993Z,88.84
2022-12-25T05:48:06.838Z,88.84
2022-12-25T05:49:06.986Z,88.64
2022-12-25T05:50:07.350Z,88.84
2022-12-25T05:51:07.618Z,88.84
2022-12-25T05:52:07.975Z,89.04
2022-12-25T05:53:08.751Z,89.04
2022-12-25T05:54:08.615Z,88.94
2022-12-25T05:55:09.039Z,88.84
2022-12-25T05:56:09.211Z,88.84
2022-12-25T05:57:09.504Z,88.64
2022-12-25T05:58:09.815Z,88.53
2022-12-25T05:59:10.150Z,88.43
2022-12-25T06:00:10.433Z,88.43
2022-12-25T06:01:10.733Z,88.43
2022-12-25T06:02:11.134Z,88.43
2022-12-25T06:03:11.434Z,88.43
2022-12-25T06:04:12.873Z,88.53
2022-12-25T06:05:12.002Z,88.64
2022-12-25T06:06:12.245Z,88.84
2022-12-25T06:07:12.528Z,88.64
2022-12-25T06:08:12.897Z,88.53
2022-12-25T06:09:13.073Z,88.64
2022-12-25T06:10:13.420Z,88.64
2022-12-25T06:11:13.597Z,88.64
2022-12-25T06:12:13.928Z,88.84
2022-12-25T06:13:14.200Z,88.74
2022-12-25T06:14:14.565Z,88.74
2022-12-25T06:15:14.856Z,88.74
2022-12-25T06:16:15.248Z,88.84
2022-12-25T06:17:15.398Z,88.74
2022-12-25T06:18:15.764Z,88.94
2022-12-25T06:19:16.064Z,88.84
2022-12-25T06:20:16.247Z,88.94
2022-12-25T06:21:16.488Z,88.94
2022-12-25T06:22:16.790Z,89.04
2022-12-25T06:23:17.066Z,88.94
2022-12-25T06:24:21.279Z,89.15
2022-12-25T06:25:17.679Z,89.15
2022-12-25T06:26:18.009Z,89.04
2022-12-25T06:27:18.333Z,88.84
2022-12-25T06:28:19.615Z,88.84
2022-12-25T06:29:18.898Z,88.94
2022-12-25T06:30:19.231Z,89.04
2022-12-25T06:31:19.705Z,88.84
2022-12-25T06:32:19.756Z,89.15
2022-12-25T06:33:20.047Z,89.04
2022-12-25T06:34:20.376Z,89.04
2022-12-25T06:35:20.588Z,88.94
2022-12-25T06:36:20.905Z,88.84
2022-12-25T06:37:21.131Z,88.94
2022-12-25T06:38:21.417Z,88.94
2022-12-25T06:39:21.694Z,88.84
2022-12-25T06:40:22.012Z,88.84
2022-12-25T06:41:22.694Z,88.94
2022-12-25T06:42:22.570Z,89.15
2022-12-25T06:43:22.847Z,89.25
2022-12-25T06:44:23.118Z,89.35
2022-12-25T06:45:23.553Z,89.35
2022-12-25T06:46:23.812Z,89.39
2022-12-25T06:47:24.100Z,89.59
2022-12-25T06:48:24.355Z,89.70
2022-12-25T06:49:24.494Z,89.70
2022-12-25T06:50:24.908Z,89.70
2022-12-25T06:51:25.151Z,89.76
2022-12-25T06:52:25.381Z,89.56
2022-12-25T06:53:25.657Z,89.59
2022-12-25T06:54:26.003Z,89.70
2022-12-25T06:55:26.255Z,89.65
2022-12-25T06:56:26.486Z,89.45
2022-12-25T06:57:26.786Z,89.35
2022-12-25T06:58:26.922Z,89.35
2022-12-25T06:59:27.208Z,89.35
2022-12-25T07:00:27.542Z,89.65
2022-12-25T07:01:27.853Z,89.76
2022-12-25T07:02:28.143Z,89.65
2022-12-25T07:03:28.323Z,89.56
2022-12-25T07:04:28.533Z,89.35
2022-12-25T07:05:28.820Z,89.35
2022-12-25T07:06:29.036Z,89.45
2022-12-25T07:07:29.253Z,89.45
2022-12-25T07:08:29.679Z,89.45
2022-12-25T07:09:29.856Z,89.25
2022-12-25T07:10:30.144Z,89.15
2022-12-25T07:11:30.834Z,89.15
2022-12-25T07:12:30.691Z,89.15
2022-12-25T07:13:30.881Z,88.94
2022-12-25T07:14:31.247Z,88.94
2022-12-25T07:15:31.497Z,88.79
2022-12-25T07:16:31.826Z,88.94
2022-12-25T07:17:32.007Z,88.84
2022-12-25T07:18:32.292Z,88.94
2022-12-25T07:19:32.511Z,89.04
2022-12-25T07:20:32.874Z,88.94
2022-12-25T07:21:33.138Z,88.94
2022-12-25T07:22:33.422Z,88.94
2022-12-25T07:23:33.605Z,89.04
2022-12-25T07:24:33.890Z,89.04
2022-12-25T07:25:37.419Z,89.04
2022-12-25T07:26:34.424Z,88.90
2022-12-25T07:27:34.657Z,88.70
2022-12-25T07:28:35.049Z,88.90
2022-12-25T07:29:35.293Z,88.79
2022-12-25T07:30:35.547Z,88.70
2022-12-25T07:31:35.849Z,88.59
2022-12-25T07:32:36.075Z,88.79
2022-12-25T07:33:36.337Z,88.79
2022-12-25T07:34:36.657Z,88.79
2022-12-25T07:35:36.889Z,88.79
2022-12-25T07:36:37.176Z,88.70
2022-12-25T07:37:37.410Z,88.59
2022-12-25T07:38:37.662Z,88.49
2022-12-25T07:39:37.976Z,88.49
2022-12-25T07:40:38.150Z,88.39
2022-12-25T07:41:38.427Z,88.29
2022-12-25T07:42:38.694Z,88.29
2022-12-25T07:43:38.960Z,88.49
2022-12-25T07:44:39.195Z,88.59
2022-12-25T07:45:39.436Z,88.59
2022-12-25T07:46:39.698Z,88.49
2022-12-25T07:47:39.996Z,88.79
2022-12-25T07:48:40.213Z,88.79
2022-12-25T07:49:40.420Z,88.79
2022-12-25T07:50:40.717Z,88.79
2022-12-25T07:51:40.920Z,88.70
2022-12-25T07:52:43.691Z,88.79
2022-12-25T07:53:41.560Z,88.70
2022-12-25T07:54:41.885Z,88.70
2022-12-25T07:55:42.049Z,88.70
2022-12-25T07:56:42.335Z,88.79
2022-12-25T07:57:42.564Z,88.79
2022-12-25T07:58:42.870Z,88.59
2022-12-25T07:59:43.119Z,88.49
2022-12-25T08:00:43.409Z,88.24
2022-12-25T08:01:43.866Z,88.29
2022-12-25T08:02:44.226Z,88.59
2022-12-25T08:03:44.316Z,88.49
2022-12-25T08:04:44.541Z,88.59
2022-12-25T08:05:44.806Z,88.59
2022-12-25T08:06:45.131Z,88.70
2022-12-25T08:07:45.357Z,88.59
2022-12-25T08:08:45.618Z,88.59
2022-12-25T08:09:45.894Z,88.49
2022-12-25T08:10:46.194Z,88.49
2022-12-25T08:11:46.411Z,88.49
2022-12-25T08:12:46.683Z,88.70
2022-12-25T08:13:46.935Z,88.90
2022-12-25T08:14:47.182Z,88.79
2022-12-25T08:15:47.459Z,88.90
2022-12-25T08:16:47.814Z,88.90
2022-12-25T08:17:47.959Z,88.90
2022-12-25T08:18:48.193Z,88.79
2022-12-25T08:19:48.445Z,88.70
2022-12-25T08:20:48.805Z,88.79
2022-12-25T08:21:49.368Z,88.79
2022-12-25T08:22:49.352Z,88.70
2022-12-25T08:23:49.581Z,88.59
2022-12-25T08:24:49.827Z,88.59
2022-12-25T08:25:50.110Z,88.49
2022-12-25T08:26:50.412Z,88.59
2022-12-25T08:27:50.597Z,88.39
2022-12-25T08:28:50.982Z,88.59
2022-12-25T08:29:51.319Z,88.55
2022-12-25T08:30:51.443Z,88.45
2022-12-25T08:31:51.635Z,88.35
2022-12-25T08:32:51.876Z,88.14
2022-12-25T08:33:52.169Z,88.49
2022-12-25T08:34:52.386Z,88.70
2022-12-25T08:35:52.668Z,88.90
2022-12-25T08:36:52.964Z,88.79
2022-12-25T08:37:53.185Z,88.90
2022-12-25T08:38:58.532Z,88.79
2022-12-25T08:39:54.809Z,88.65
2022-12-25T08:40:54.122Z,88.55
2022-12-25T08:41:54.455Z,88.45
2022-12-25T08:42:54.592Z,88.35
2022-12-25T08:43:54.810Z,88.35
2022-12-25T08:44:55.233Z,88.35
2022-12-25T08:45:55.511Z,88.24
2022-12-25T08:46:56.164Z,88.35
2022-12-25T08:47:55.939Z,88.70
2022-12-25T08:48:56.380Z,89.11
2022-12-25T08:49:56.624Z,89.20
2022-12-25T08:50:56.873Z,89.11
2022-12-25T08:51:57.071Z,88.90
2022-12-25T08:52:57.361Z,88.90
2022-12-25T08:53:57.596Z,88.65
2022-12-25T08:54:57.937Z,88.65
2022-12-25T08:55:58.340Z,88.65
2022-12-25T08:57:02.668Z,88.65
2022-12-25T08:57:58.856Z,88.55
2022-12-25T08:58:59.221Z,88.55
2022-12-25T08:59:59.456Z,88.45
2022-12-25T09:00:59.706Z,88.45
2022-12-25T09:01:59.995Z,88.45
2022-12-25T09:03:00.456Z,88.24
2022-12-25T09:04:00.539Z,88.49
2022-12-25T09:05:00.796Z,88.79
2022-12-25T09:06:01.063Z,88.85
2022-12-25T09:07:01.328Z,88.96
2022-12-25T09:08:01.666Z,88.45
2022-12-25T09:09:01.901Z,88.35
2022-12-25T09:10:02.111Z,88.35
2022-12-25T09:11:02.530Z,88.14
2022-12-25T09:12:02.738Z,87.84
2022-12-25T09:13:03.055Z,87.94
2022-12-25T09:14:03.306Z,88.04
2022-12-25T09:15:03.551Z,87.94
2022-12-25T09:16:03.849Z,87.84
2022-12-25T09:17:04.099Z,88.14
2022-12-25T09:18:04.443Z,88.24
2022-12-25T09:19:04.648Z,88.55
2022-12-25T09:20:04.912Z,88.76
2022-12-25T09:21:05.255Z,88.96
2022-12-25T09:22:05.510Z,88.76
2022-12-25T09:23:11.655Z,88.65
2022-12-25T09:24:06.974Z,88.85
2022-12-25T09:25:06.241Z,88.96
2022-12-25T09:26:06.545Z,88.76
2022-12-25T09:27:06.850Z,88.85
2022-12-25T09:28:07.095Z,88.76
2022-12-25T09:29:07.385Z,88.96
2022-12-25T09:30:07.633Z,88.76
2022-12-25T09:31:07.952Z,88.55
2022-12-25T09:32:08.148Z,88.35
2022-12-25T09:33:08.421Z,88.24
2022-12-25T09:34:11.423Z,88.24
2022-12-25T09:35:10.061Z,88.14
2022-12-25T09:36:09.202Z,88.35
2022-12-25T09:37:09.584Z,88.96
2022-12-25T09:38:09.826Z,89.26
2022-12-25T09:39:10.211Z,89.26
2022-12-25T09:40:10.425Z,88.76
2022-12-25T09:41:10.723Z,88.20
2022-12-25T09:42:10.988Z,87.45
2022-12-25T09:43:11.250Z,87.00
2022-12-25T09:44:11.658Z,86.29
2022-12-25T09:45:11.777Z,85.22
2022-12-25T09:46:12.110Z,85.02
2022-12-25T09:47:12.391Z,84.58
2022-12-25T09:48:12.668Z,84.47
2022-12-25T09:49:12.939Z,84.27
2022-12-25T09:50:13.190Z,84.17
2022-12-25T09:51:13.448Z,84.47
2022-12-25T09:52:13.703Z,84.47
2022-12-25T09:53:13.978Z,84.17
2022-12-25T09:54:14.238Z,83.96
2022-12-25T09:55:19.629Z,84.17
2022-12-25T09:56:15.735Z,84.06
2022-12-25T09:57:15.046Z,84.17
2022-12-25T09:58:15.295Z,84.06
2022-12-25T09:59:15.577Z,84.27
2022-12-25T10:00:15.834Z,84.51
2022-12-25T10:01:16.238Z,84.51
2022-12-25T10:02:16.607Z,84.61
2022-12-25T10:03:16.657Z,84.61
2022-12-25T10:04:16.918Z,84.61
2022-12-25T10:05:17.228Z,84.67
2022-12-25T10:06:17.474Z,84.41
2022-12-25T10:07:17.715Z,84.92
2022-12-25T10:08:17.967Z,85.02
2022-12-25T10:09:18.223Z,84.78
2022-12-25T10:10:18.487Z,84.67
2022-12-25T10:11:18.714Z,84.37
2022-12-25T10:12:18.975Z,84.37
2022-12-25T10:13:19.309Z,84.58
2022-12-25T10:14:19.511Z,84.47
2022-12-25T10:15:19.800Z,84.27
2022-12-25T10:16:20.010Z,83.92
2022-12-25T10:17:20.238Z,83.72
2022-12-25T10:18:20.542Z,83.62
2022-12-25T10:19:20.817Z,83.07
2022-12-25T10:20:21.076Z,83.01
2022-12-25T10:21:21.360Z,83.11
2022-12-25T10:22:21.527Z,83.07
2022-12-25T10:23:21.769Z,82.87
2022-12-25T10:24:22.053Z,82.87
2022-12-25T10:25:22.458Z,82.76
2022-12-25T10:26:22.672Z,82.46
2022-12-25T10:27:22.943Z,82.46
2022-12-25T10:28:23.138Z,82.35
2022-12-25T10:29:23.390Z,82.46
2022-12-25T10:30:23.676Z,82.66
2022-12-25T10:31:23.965Z,82.70
2022-12-25T10:32:24.249Z,82.90
2022-12-25T10:33:24.487Z,83.21
2022-12-25T10:34:24.843Z,83.21
2022-12-25T10:35:25.036Z,83.17
2022-12-25T10:36:25.293Z,82.66
2022-12-25T10:37:25.538Z,82.46
2022-12-25T10:38:25.785Z,82.35
2022-12-25T10:39:26.033Z,81.91
2022-12-25T10:40:26.244Z,81.91
2022-12-25T10:41:26.623Z,81.81
2022-12-25T10:42:26.844Z,81.51
2022-12-25T10:43:27.211Z,81.71
2022-12-25T10:44:27.459Z,81.71
2022-12-25T10:45:27.752Z,81.71
2022-12-25T10:46:28.334Z,81.74
2022-12-25T10:47:28.273Z,82.26
2022-12-25T10:48:28.528Z,82.56
2022-12-25T10:49:28.817Z,82.70
2022-12-25T10:50:29.045Z,83.01
2022-12-25T10:51:29.300Z,82.87
2022-12-25T10:52:29.544Z,82.56
2022-12-25T10:53:29.797Z,82.80
2022-12-25T10:54:30.039Z,83.42
2022-12-25T10:55:30.417Z,83.62
2022-12-25T10:56:30.627Z,83.62
2022-12-25T10:57:31.096Z,83.62
2022-12-25T10:58:31.174Z,83.72
2022-12-25T10:59:31.518Z,83.51
2022-12-25T11:00:31.747Z,83.62
2022-12-25T11:01:32.093Z,83.62
2022-12-25T11:02:32.476Z,83.51
2022-12-25T11:03:32.714Z,83.51
2022-12-25T11:04:32.914Z,83.51
2022-12-25T11:05:33.143Z,83.82
2022-12-25T11:06:33.457Z,84.12
2022-12-25T11:07:33.650Z,83.89
2022-12-25T11:08:33.885Z,83.92
2022-12-25T11:09:34.181Z,84.03
2022-12-25T11:10:34.433Z,84.23
2022-12-25T11:11:34.735Z,84.53
2022-12-25T11:12:34.924Z,84.78
2022-12-25T11:13:35.166Z,85.39
2022-12-25T11:14:35.403Z,85.39
2022-12-25T11:15:35.687Z,85.19
2022-12-25T11:16:36.174Z,85.39
2022-12-25T11:17:36.269Z,85.28
2022-12-25T11:18:36.526Z,85.05
2022-12-25T11:19:36.829Z,84.84
2022-12-25T11:20:38.405Z,84.53
2022-12-25T11:21:37.407Z,84.43
2022-12-25T11:22:37.553Z,84.64
2022-12-25T11:23:37.943Z,84.67
2022-12-25T11:24:38.217Z,85.08
2022-12-25T11:25:38.429Z,85.74
2022-12-25T11:26:38.902Z,85.94
2022-12-25T11:27:38.945Z,86.04
2022-12-25T11:28:39.282Z,85.94
2022-12-25T11:29:39.538Z,86.04
2022-12-25T11:30:39.742Z,86.35
2022-12-25T11:31:40.103Z,86.45
2022-12-25T11:32:40.242Z,86.55
2022-12-25T11:33:40.487Z,86.45
2022-12-25T11:34:40.731Z,86.15
2022-12-25T11:35:41.000Z,86.15
2022-12-25T11:36:41.295Z,86.10
2022-12-25T11:37:41.539Z,86.10
2022-12-25T11:38:41.855Z,86.10
2022-12-25T11:39:42.168Z,86.15
2022-12-25T11:40:42.354Z,86.21
2022-12-25T11:41:42.588Z,86.00
2022-12-25T11:42:42.849Z,85.90
2022-12-25T11:43:43.128Z,85.80
2022-12-25T11:44:43.424Z,85.60
2022-12-25T11:45:43.665Z,85.49
2022-12-25T11:46:44.028Z,85.49
2022-12-25T11:47:44.330Z,85.55
2022-12-25T11:48:44.508Z,85.25
2022-12-25T11:49:49.480Z,85.05
2022-12-25T11:50:45.986Z,84.84
2022-12-25T11:51:45.306Z,84.84
2022-12-25T11:52:45.525Z,84.84
2022-12-25T11:53:45.792Z,84.84
2022-12-25T11:54:46.032Z,85.05
2022-12-25T11:55:46.314Z,84.84
2022-12-25T11:56:46.518Z,84.64
2022-12-25T11:57:46.768Z,84.94
2022-12-25T11:58:47.035Z,85.05
2022-12-25T11:59:47.320Z,85.05
2022-12-25T12:00:47.591Z,84.80
2022-12-25T12:01:47.969Z,84.50
2022-12-25T12:02:48.318Z,84.80
2022-12-25T12:03:48.467Z,84.80
2022-12-25T12:04:48.727Z,84.35
2022-12-25T12:05:49.015Z,84.05
2022-12-25T12:06:50.244Z,83.95
2022-12-25T12:07:49.546Z,83.20
2022-12-25T12:08:49.755Z,83.29
2022-12-25T12:09:50.055Z,83.40
2022-12-25T12:10:50.362Z,83.20
2022-12-25T12:11:50.682Z,83.29
2022-12-25T12:12:50.965Z,83.44
2022-12-25T12:13:51.171Z,83.50
2022-12-25T12:14:51.463Z,83.29
2022-12-25T12:15:51.781Z,83.29
2022-12-25T12:16:51.991Z,83.09
2022-12-25T12:17:52.227Z,82.79
2022-12-25T12:18:52.488Z,82.75
2022-12-25T12:19:52.826Z,82.34
2022-12-25T12:20:53.055Z,82.24
2022-12-25T12:21:53.351Z,82.45
2022-12-25T12:22:54.432Z,82.45
2022-12-25T12:23:53.904Z,82.54
2022-12-25T12:24:54.173Z,82.54
2022-12-25T12:25:54.492Z,82.79
2022-12-25T12:26:54.738Z,82.99
2022-12-25T12:27:59.798Z,82.99
2022-12-25T12:28:56.251Z,82.79
2022-12-25T12:29:55.660Z,82.89
2022-12-25T12:30:55.808Z,82.89
2022-12-25T12:31:56.194Z,82.99
2022-12-25T12:32:56.293Z,82.54
2022-12-25T12:33:56.578Z,81.90
2022-12-25T12:34:56.829Z,80.44
2022-12-25T12:35:57.116Z,79.49
2022-12-25T12:36:57.330Z,78.53
2022-12-25T12:37:57.638Z,77.48
2022-12-25T12:38:57.857Z,77.38
2022-12-25T12:39:58.318Z,76.64
2022-12-25T12:40:58.556Z,76.54
2022-12-25T12:41:58.842Z,75.59
2022-12-25T12:42:59.115Z,75.93
2022-12-25T12:43:59.341Z,75.59
2022-12-25T12:44:59.621Z,74.74
2022-12-25T12:45:59.937Z,73.49
2022-12-25T12:47:00.237Z,73.39
2022-12-25T12:48:00.486Z,73.29
2022-12-25T12:49:00.754Z,73.15
2022-12-25T12:50:01.058Z,72.72
2022-12-25T12:51:01.332Z,71.91
2022-12-25T12:52:01.616Z,72.21
2022-12-25T12:53:01.885Z,71.80
2022-12-25T12:54:02.160Z,72.01
2022-12-25T12:55:02.647Z,72.01
2022-12-25T12:56:02.718Z,71.80